createdAt,value
2018-02-17T00:00:56.806Z,98488
2018-02-17T00:03:25.020Z,98496
2018-02-17T00:05:53.964Z,98500
2018-02-17T00:08:22.141Z,98497
2018-02-17T00:10:50.309Z,98498
2018-02-17T00:13:18.482Z,98493
2018-02-17T00:15:46.660Z,98495
2018-02-17T00:18:14.895Z,98493
2018-02-17T00:20:43.827Z,98501
2018-02-17T00:23:11.990Z,98497
2018-02-17T00:25:40.167Z,98494
2018-02-17T00:28:08.375Z,98499
2018-02-17T00:30:37.303Z,98500
2018-02-17T00:33:06.244Z,98494
2018-02-17T00:35:34.418Z,98497
2018-02-17T00:38:02.596Z,98498
2018-02-17T00:40:30.802Z,98498
2018-02-17T00:43:01.747Z,98488
2018-02-17T00:45:29.914Z,98485
2018-02-17T00:47:58.118Z,98485
2018-02-17T00:50:26.284Z,98482
2018-02-17T00:52:54.463Z,98476
2018-02-17T00:55:22.638Z,98474
2018-02-17T00:57:50.841Z,98477
2018-02-17T01:00:19.786Z,98470
2018-02-17T01:02:47.954Z,98474
2018-02-17T01:05:16.168Z,98477
2018-02-17T01:07:44.343Z,98470
2018-02-17T01:10:12.529Z,98474
2018-02-17T01:12:41.464Z,98476
2018-02-17T01:15:09.661Z,98463
2018-02-17T01:17:37.863Z,98458
2018-02-17T01:20:06.032Z,98466
2018-02-17T01:22:34.202Z,98463
2018-02-17T01:25:02.375Z,98462
2018-02-17T01:27:30.555Z,98454
2018-02-17T01:29:58.748Z,98455
2018-02-17T01:32:27.702Z,98459
2018-02-17T01:34:55.930Z,98460
2018-02-17T01:37:24.960Z,98457
2018-02-17T01:39:53.157Z,98452
2018-02-17T01:42:21.393Z,98453
2018-02-17T01:44:49.583Z,98458
2018-02-17T01:47:17.771Z,98453
2018-02-17T01:49:45.986Z,98439
2018-02-17T01:52:14.164Z,98438
2018-02-17T01:54:43.158Z,98436
2018-02-17T01:57:11.322Z,98437
2018-02-17T01:59:39.510Z,98439
2018-02-17T02:02:08.449Z,98435
2018-02-17T02:04:36.644Z,98428
2018-02-17T02:07:04.846Z,98428
2018-02-17T02:09:33.033Z,98431
2018-02-17T02:12:01.968Z,98427
2018-02-17T02:14:30.154Z,98423
2018-02-17T02:16:58.327Z,98422
2018-02-17T02:19:26.506Z,98422
2018-02-17T02:21:54.695Z,98422
2018-02-17T02:24:22.858Z,98425
2018-02-17T02:26:51.034Z,98422
2018-02-17T02:29:19.199Z,98416
2018-02-17T02:31:47.380Z,98407
2018-02-17T02:34:15.554Z,98413
2018-02-17T02:36:44.530Z,98417
2018-02-17T02:39:12.712Z,98409
2018-02-17T02:41:40.946Z,98407
2018-02-17T02:44:09.910Z,98413
2018-02-17T02:46:38.121Z,98407
2018-02-17T02:49:07.092Z,98399
2018-02-17T02:51:35.286Z,98402
2018-02-17T02:54:04.223Z,98408
2018-02-17T02:56:32.422Z,98407
2018-02-17T02:59:00.599Z,98405
2018-02-17T03:01:28.804Z,98391
2018-02-17T03:03:57.747Z,98393
2018-02-17T03:06:25.922Z,98391
2018-02-17T03:08:54.128Z,98386
2018-02-17T03:11:22.292Z,98389
2018-02-17T03:13:50.471Z,98393
2018-02-17T03:16:18.666Z,98387
2018-02-17T03:18:47.617Z,98388
2018-02-17T03:21:15.860Z,98391
2018-02-17T03:23:44.066Z,98394
2018-02-17T03:26:12.225Z,98384
2018-02-17T03:28:40.462Z,98405
2018-02-17T03:31:09.407Z,98406
2018-02-17T03:33:37.618Z,98399
2018-02-17T03:36:05.781Z,98394
2018-02-17T03:38:33.969Z,98385
2018-02-17T03:41:02.176Z,98383
2018-02-17T03:43:30.354Z,98390
2018-02-17T03:45:58.574Z,98391
2018-02-17T03:48:26.741Z,98392
2018-02-17T03:50:55.718Z,98384
2018-02-17T03:53:23.886Z,98385
2018-02-17T03:55:52.070Z,98387
2018-02-17T03:58:20.258Z,98384
2018-02-17T04:00:48.455Z,98379
2018-02-17T04:03:16.632Z,98383
2018-02-17T04:05:44.819Z,98386
2018-02-17T04:08:13.794Z,98392
2018-02-17T04:10:41.998Z,98384
2018-02-17T04:13:10.942Z,98383
2018-02-17T04:15:39.125Z,98374
2018-02-17T04:18:07.324Z,98366
2018-02-17T04:20:36.266Z,98371
2018-02-17T04:23:04.436Z,98370
2018-02-17T04:25:32.641Z,98366
2018-02-17T04:28:00.822Z,98359
2018-02-17T04:30:28.995Z,98359
2018-02-17T04:32:57.162Z,98354
2018-02-17T04:35:25.321Z,98345
2018-02-17T04:37:54.279Z,98336
2018-02-17T04:43:26.597Z,98323
2018-02-17T04:45:55.290Z,98319
2018-02-17T04:51:43.850Z,98319
2018-02-17T04:57:15.445Z,98330
2018-02-17T04:59:47.136Z,98322
2018-02-17T05:02:21.722Z,98308
2018-02-17T05:04:55.431Z,98317
2018-02-17T05:07:24.011Z,98318
2018-02-17T05:09:52.950Z,98310
2018-02-17T05:12:21.894Z,98314
2018-02-17T05:15:04.949Z,98306
2018-02-17T05:17:39.509Z,98310
2018-02-17T05:20:07.722Z,98314
2018-02-17T05:22:36.314Z,98309
2018-02-17T05:25:11.094Z,98310
2018-02-17T05:30:41.216Z,98300
2018-02-17T05:33:21.878Z,98294
2018-02-17T05:35:56.311Z,98288
2018-02-17T05:38:25.125Z,98280
2018-02-17T05:40:54.079Z,98276
2018-02-17T05:43:23.037Z,98277
2018-02-17T05:48:49.633Z,98278
2018-02-17T05:51:18.586Z,98277
2018-02-17T05:53:46.757Z,98271
2018-02-17T05:56:14.934Z,98266
2018-02-17T05:58:43.103Z,98260
2018-02-17T06:01:11.266Z,98260
2018-02-17T06:03:39.432Z,98261
2018-02-17T06:06:07.602Z,98257
2018-02-17T06:08:35.771Z,98252
2018-02-17T06:11:03.950Z,98248
2018-02-17T06:13:32.126Z,98247
2018-02-17T06:16:00.286Z,98243
2018-02-17T06:18:28.456Z,98245
2018-02-17T06:20:56.617Z,98251
2018-02-17T06:23:25.545Z,98243
2018-02-17T06:25:53.712Z,98242
2018-02-17T06:28:21.875Z,98236
2018-02-17T06:30:50.065Z,98243
2018-02-17T06:33:18.253Z,98241
2018-02-17T06:35:46.418Z,98240
2018-02-17T06:38:14.606Z,98242
2018-02-17T06:40:43.550Z,98245
2018-02-17T06:43:11.722Z,98233
2018-02-17T06:45:40.665Z,98229
2018-02-17T06:48:08.834Z,98232
2018-02-17T06:50:36.997Z,98227
2018-02-17T06:53:05.174Z,98233
2018-02-17T06:55:33.341Z,98225
2018-02-17T06:58:01.518Z,98224
2018-02-17T07:00:29.727Z,98227
2018-02-17T07:02:57.890Z,98233
2018-02-17T07:05:26.055Z,98233
2018-02-17T07:07:54.259Z,98228
2018-02-17T07:10:22.427Z,98226
2018-02-17T07:12:50.607Z,98223
2018-02-17T07:15:18.840Z,98228
2018-02-17T07:17:47.006Z,98234
2018-02-17T07:20:15.163Z,98235
2018-02-17T07:22:43.355Z,98226
2018-02-17T07:25:11.537Z,98228
2018-02-17T07:27:39.703Z,98230
2018-02-17T07:30:07.861Z,98229
2018-02-17T07:32:36.035Z,98213
2018-02-17T07:35:04.248Z,98218
2018-02-17T07:37:32.407Z,98215
2018-02-17T07:40:00.602Z,98203
2018-02-17T07:42:28.806Z,98198
2018-02-17T07:44:56.986Z,98197
2018-02-17T07:47:25.919Z,98197
2018-02-17T07:49:54.089Z,98199
2018-02-17T07:52:22.269Z,98190
2018-02-17T07:54:50.430Z,98181
2018-02-17T07:57:18.611Z,98176
2018-02-17T07:59:46.775Z,98176
2018-02-17T08:02:14.999Z,98170
2018-02-17T08:04:43.175Z,98167
2018-02-17T08:07:11.377Z,98163
2018-02-17T08:09:40.419Z,98163
2018-02-17T08:12:08.586Z,98158
2018-02-17T08:14:36.769Z,98149
2018-02-17T08:17:04.935Z,98148
2018-02-17T08:19:33.165Z,98139
2018-02-17T08:22:01.369Z,98140
2018-02-17T08:24:29.542Z,98130
2018-02-17T08:26:57.707Z,98120
2018-02-17T08:29:26.669Z,98115
2018-02-17T08:31:54.850Z,98112
2018-02-17T08:34:23.022Z,98106
2018-02-17T08:36:51.206Z,98105
2018-02-17T08:39:19.395Z,98098
2018-02-17T08:41:48.352Z,98099
2018-02-17T08:44:16.551Z,98101
2018-02-17T08:46:45.498Z,98102
2018-02-17T08:49:13.684Z,98094
2018-02-17T08:51:41.849Z,98097
2018-02-17T08:54:10.016Z,98102
2018-02-17T08:56:38.194Z,98099
2018-02-17T08:59:06.368Z,98097
2018-02-17T09:01:34.933Z,98096
2018-02-17T09:04:03.097Z,98089
2018-02-17T09:06:32.061Z,98092
2018-02-17T09:09:00.237Z,98086
2018-02-17T09:11:28.421Z,98082
2018-02-17T09:13:57.381Z,98076
2018-02-17T09:16:25.570Z,98068
2018-02-17T09:18:54.496Z,98065
2018-02-17T09:21:22.670Z,98071
2018-02-17T09:23:51.697Z,98066
2018-02-17T09:26:19.906Z,98060
2018-02-17T09:28:48.084Z,98062
2018-02-17T09:31:16.302Z,98061
2018-02-17T09:33:44.496Z,98055
2018-02-17T09:36:12.742Z,98054
2018-02-17T09:38:41.675Z,98052
2018-02-17T09:41:09.912Z,98053
2018-02-17T09:43:38.088Z,98044
2018-02-17T09:46:06.287Z,98041
2018-02-17T09:48:34.480Z,98037
2018-02-17T09:51:02.662Z,98035
2018-02-17T09:53:30.858Z,98034
2018-02-17T09:55:59.043Z,98032
2018-02-17T09:58:27.981Z,98028
2018-02-17T10:00:56.186Z,98027
2018-02-17T10:03:24.366Z,98029
2018-02-17T10:05:52.543Z,98014
2018-02-17T10:08:20.720Z,98023
2018-02-17T10:10:48.906Z,98016
2018-02-17T10:13:17.133Z,98014
2018-02-17T10:15:45.295Z,98009
2018-02-17T10:18:13.495Z,98006
2018-02-17T10:20:41.713Z,97996
2018-02-17T10:23:09.888Z,97987
2018-02-17T10:25:38.842Z,97984
2018-02-17T10:28:07.055Z,97987
2018-02-17T10:30:35.991Z,97971
2018-02-17T10:33:04.166Z,97976
2018-02-17T10:35:32.435Z,97973
2018-02-17T10:38:00.549Z,97969
2018-02-17T10:40:28.720Z,97960
2018-02-17T10:42:57.662Z,97957
2018-02-17T10:45:25.833Z,97946
2018-02-17T10:47:54.099Z,97945
2018-02-17T10:50:23.030Z,97957
2018-02-17T10:52:51.195Z,97951
2018-02-17T10:55:19.402Z,97945
2018-02-17T10:57:47.580Z,97929
2018-02-17T11:00:15.754Z,97922
2018-02-17T11:02:43.922Z,97911
2018-02-17T11:05:12.126Z,97907
2018-02-17T11:07:41.089Z,97902
2018-02-17T11:10:09.290Z,97895
2018-02-17T11:12:37.467Z,97887
2018-02-17T11:15:06.434Z,97881
2018-02-17T11:17:34.613Z,97874
2018-02-17T11:20:02.801Z,97868
2018-02-17T11:22:30.975Z,97855
2018-02-17T11:24:59.150Z,97858
2018-02-17T11:27:27.331Z,97848
2018-02-17T11:29:55.536Z,97834
2018-02-17T11:32:23.708Z,97830
2018-02-17T11:34:51.908Z,97827
2018-02-17T11:37:20.095Z,97818
2018-02-17T11:39:48.270Z,97809
2018-02-17T11:42:16.498Z,97803
2018-02-17T11:44:45.450Z,97795
2018-02-17T11:47:13.615Z,97796
2018-02-17T11:49:41.797Z,97786
2018-02-17T11:52:09.962Z,97791
2018-02-17T11:54:38.128Z,97787
2018-02-17T11:57:06.342Z,97776
2018-02-17T11:59:34.577Z,97768
2018-02-17T12:02:03.498Z,97771
2018-02-17T12:04:31.712Z,97763
2018-02-17T12:07:00.658Z,97767
2018-02-17T12:09:28.841Z,97755
2018-02-17T12:11:57.038Z,97751
2018-02-17T12:14:26.033Z,97744
2018-02-17T12:16:55.025Z,97738
2018-02-17T12:19:23.184Z,97735
2018-02-17T12:21:51.373Z,97726
2018-02-17T12:24:20.353Z,97730
2018-02-17T12:26:48.526Z,97715
2018-02-17T12:29:16.696Z,97706
2018-02-17T12:31:44.883Z,97692
2018-02-17T12:34:13.059Z,97696
2018-02-17T12:36:42.019Z,97695
2018-02-17T12:39:10.189Z,97685
2018-02-17T12:41:38.379Z,97684
2018-02-17T12:44:07.348Z,97681
2018-02-17T12:46:35.752Z,97682
2018-02-17T12:49:03.931Z,97670
2018-02-17T12:51:32.115Z,97652
2018-02-17T12:54:00.300Z,97651
2018-02-17T12:56:28.474Z,97644
2018-02-17T12:58:56.657Z,97636
2018-02-17T13:01:25.610Z,97632
2018-02-17T13:03:53.784Z,97626
2018-02-17T13:06:21.970Z,97614
2018-02-17T13:08:50.177Z,97607
2018-02-17T13:11:19.119Z,97604
2018-02-17T13:13:47.396Z,97596
2018-02-17T13:16:16.333Z,97591
2018-02-17T13:18:45.291Z,97599
2018-02-17T13:21:13.494Z,97598
2018-02-17T13:23:41.702Z,97590
2018-02-17T13:26:09.939Z,97590
2018-02-17T13:28:38.133Z,97583
2018-02-17T13:31:07.079Z,97585
2018-02-17T13:33:35.264Z,97575
2018-02-17T13:36:03.542Z,97571
2018-02-17T13:38:31.713Z,97569
2018-02-17T13:40:59.904Z,97559
2018-02-17T13:43:28.101Z,97551
2018-02-17T13:45:57.073Z,97549
2018-02-17T13:48:25.312Z,97550
2018-02-17T13:50:53.505Z,97538
2018-02-17T13:53:21.693Z,97529
2018-02-17T13:55:49.898Z,97532
2018-02-17T13:58:18.854Z,97524
2018-02-17T14:00:47.033Z,97524
2018-02-17T14:03:15.307Z,97517
2018-02-17T14:05:44.271Z,97512
2018-02-17T14:08:12.453Z,97515
2018-02-17T14:10:40.617Z,97509
2018-02-17T14:13:08.794Z,97505
2018-02-17T14:15:36.990Z,97511
2018-02-17T14:18:05.170Z,97511
2018-02-17T14:20:33.374Z,97506
2018-02-17T14:23:02.326Z,97508
2018-02-17T14:25:30.505Z,97505
2018-02-17T14:27:58.675Z,97506
2018-02-17T14:30:26.842Z,97502
2018-02-17T14:32:55.013Z,97506
2018-02-17T14:35:23.187Z,97504
2018-02-17T14:37:51.360Z,97504
2018-02-17T14:40:19.530Z,97497
2018-02-17T14:42:47.722Z,97499
2018-02-17T14:45:15.883Z,97498
2018-02-17T14:47:44.037Z,97493
2018-02-17T14:50:12.215Z,97488
2018-02-17T14:52:40.403Z,97491
2018-02-17T14:55:08.586Z,97486
2018-02-17T14:57:36.786Z,97482
2018-02-17T15:00:05.066Z,97479
2018-02-17T15:02:33.249Z,97473
2018-02-17T15:05:01.425Z,97465
2018-02-17T15:07:29.634Z,97471
2018-02-17T15:09:57.818Z,97469
2018-02-17T15:12:25.994Z,97466
2018-02-17T15:14:54.172Z,97461
2018-02-17T15:17:22.345Z,97460
2018-02-17T15:19:50.530Z,97454
2018-02-17T15:22:18.707Z,97463
2018-02-17T15:24:46.900Z,97457
2018-02-17T15:27:15.110Z,97461
2018-02-17T15:29:44.050Z,97460
2018-02-17T15:32:12.226Z,97465
2018-02-17T15:34:40.411Z,97466
2018-02-17T15:37:08.605Z,97469
2018-02-17T15:39:36.789Z,97465
2018-02-17T15:42:04.959Z,97468
2018-02-17T15:44:33.263Z,97468
2018-02-17T15:47:01.456Z,97468
2018-02-17T15:49:29.637Z,97467
2018-02-17T15:51:57.807Z,97466
2018-02-17T15:54:25.978Z,97476
2018-02-17T15:56:54.174Z,97473
2018-02-17T15:59:22.367Z,97475
2018-02-17T16:01:50.549Z,97472
2018-02-17T16:04:18.742Z,97477
2018-02-17T16:06:46.927Z,97475
2018-02-17T16:09:15.866Z,97485
2018-02-17T16:11:44.054Z,97485
2018-02-17T16:14:12.225Z,97493
2018-02-17T16:16:40.407Z,97493
2018-02-17T16:19:08.584Z,97498
2018-02-17T16:21:36.788Z,97503
2018-02-17T16:24:04.974Z,97500
2018-02-17T16:26:33.932Z,97503
2018-02-17T16:29:02.106Z,97510
2018-02-17T16:31:30.305Z,97510
2018-02-17T16:33:58.483Z,97517
2018-02-17T16:36:26.674Z,97522
2018-02-17T16:38:55.604Z,97527
2018-02-17T16:41:23.774Z,97530
2018-02-17T16:43:51.935Z,97526
2018-02-17T16:46:20.125Z,97532
2018-02-17T16:48:48.308Z,97539
2018-02-17T16:51:16.502Z,97538
2018-02-17T16:53:44.691Z,97544
2018-02-17T16:56:12.886Z,97547
2018-02-17T16:58:41.837Z,97553
2018-02-17T17:01:10.015Z,97556
2018-02-17T17:03:38.185Z,97551
2018-02-17T17:06:06.374Z,97548
2018-02-17T17:08:34.566Z,97552
2018-02-17T17:11:03.519Z,97549
2018-02-17T17:13:31.708Z,97551
2018-02-17T17:15:59.913Z,97552
2018-02-17T17:18:28.883Z,97552
2018-02-17T17:20:57.081Z,97559
2018-02-17T17:23:26.026Z,97553
2018-02-17T17:25:54.200Z,97549
2018-02-17T17:28:22.388Z,97553
2018-02-17T17:30:50.565Z,97549
2018-02-17T17:33:18.749Z,97548
2018-02-17T17:35:46.972Z,97547
2018-02-17T17:38:15.227Z,97548
2018-02-17T17:40:43.448Z,97548
2018-02-17T17:43:11.625Z,97540
2018-02-17T17:45:39.834Z,97542
2018-02-17T17:48:08.014Z,97541
2018-02-17T17:50:36.248Z,97542
2018-02-17T17:53:04.440Z,97545
2018-02-17T17:55:32.695Z,97551
2018-02-17T17:58:00.903Z,97555
2018-02-17T18:00:29.081Z,97555
2018-02-17T18:02:57.264Z,97557
2018-02-17T18:05:25.433Z,97550
2018-02-17T18:07:53.610Z,97553
2018-02-17T18:10:21.830Z,97546
2018-02-17T18:12:50.011Z,97540
2018-02-17T18:15:18.223Z,97533
2018-02-17T18:17:46.401Z,97526
2018-02-17T18:20:15.361Z,97515
2018-02-17T18:22:43.542Z,97519
2018-02-17T18:25:11.739Z,97518
2018-02-17T18:27:39.988Z,97523
2018-02-17T18:30:08.180Z,97525
2018-02-17T18:32:37.173Z,97527
2018-02-17T18:35:05.350Z,97527
2018-02-17T18:37:33.524Z,97534
2018-02-17T18:40:01.694Z,97537
2018-02-17T18:42:29.872Z,97541
2018-02-17T18:44:58.040Z,97537
2018-02-17T18:47:26.220Z,97533
2018-02-17T18:49:54.391Z,97531
2018-02-17T18:52:22.578Z,97529
2018-02-17T18:54:50.767Z,97530
2018-02-17T18:57:18.950Z,97529
2018-02-17T18:59:47.909Z,97533
2018-02-17T19:02:16.089Z,97544
2018-02-17T19:04:44.319Z,97540
2018-02-17T19:07:12.504Z,97539
2018-02-17T19:09:41.016Z,97539
2018-02-17T19:12:09.247Z,97543
2018-02-17T19:14:38.233Z,97542
2018-02-17T19:17:06.490Z,97535
2018-02-17T19:19:34.667Z,97523
2018-02-17T19:22:02.879Z,97521
2018-02-17T20:40:29.479Z,97517
2018-02-17T20:42:57.703Z,97517
2018-02-17T20:45:26.645Z,97519
2018-02-17T20:47:54.805Z,97514
2018-02-17T20:50:22.983Z,97516
2018-02-17T20:52:51.163Z,97520
2018-02-17T20:55:19.327Z,97520
2018-02-17T20:57:47.507Z,97527
2018-02-17T21:00:15.702Z,97527
2018-02-17T21:02:43.895Z,97520
2018-02-17T21:05:12.867Z,97513
2018-02-17T21:07:41.065Z,97514
2018-02-17T21:10:09.250Z,97516
2018-02-17T21:12:37.496Z,97516
2018-02-17T21:15:05.720Z,97523
2018-02-17T21:17:33.926Z,97521
2018-02-17T21:20:02.116Z,97535
2018-02-17T21:22:30.282Z,97537
2018-02-17T21:24:58.468Z,97532
2018-02-17T21:27:26.646Z,97528
2018-02-17T21:29:55.147Z,97526
2018-02-17T21:32:23.726Z,97527
2018-02-17T21:34:51.907Z,97530
2018-02-17T21:37:20.081Z,97525
2018-02-17T21:39:48.266Z,97517
2018-02-17T21:42:17.212Z,97509
2018-02-17T21:44:45.380Z,97514
2018-02-17T21:47:13.589Z,97521
2018-02-17T21:49:41.778Z,97518
2018-02-17T21:52:10.739Z,97529
2018-02-17T21:54:38.942Z,97533
2018-02-17T21:57:07.128Z,97538
2018-02-17T21:59:36.097Z,97537
2018-02-17T22:02:04.272Z,97544
2018-02-17T22:04:32.515Z,97541
2018-02-17T22:07:00.696Z,97539
2018-02-17T22:09:28.878Z,97541
2018-02-17T22:11:57.049Z,97543
2018-02-17T22:14:25.226Z,97551
2018-02-17T22:16:54.446Z,97547
2018-02-17T22:19:22.641Z,97549
2018-02-17T22:21:51.622Z,97550
2018-02-17T22:24:19.890Z,97554
2018-02-17T22:26:48.029Z,97563
2018-02-17T22:29:16.212Z,97560
2018-02-17T22:31:44.387Z,97559
2018-02-17T22:34:12.567Z,97562
2018-02-17T22:36:40.758Z,97566
2018-02-17T22:39:08.975Z,97559
2018-02-17T22:41:37.907Z,97562
2018-02-17T22:44:06.082Z,97566
2018-02-17T22:46:34.258Z,97570
2018-02-17T22:49:02.449Z,97570
2018-02-17T22:51:30.650Z,97571
2018-02-17T22:53:59.640Z,97574
2018-02-17T22:56:28.623Z,97577
2018-02-17T22:58:56.799Z,97580
2018-02-17T23:01:24.991Z,97586
2018-02-17T23:03:53.935Z,97585
2018-02-17T23:06:22.138Z,97584
2018-02-17T23:08:50.311Z,97581
2018-02-17T23:11:18.487Z,97587
2018-02-17T23:13:46.699Z,97589
2018-02-17T23:16:14.904Z,97593
2018-02-17T23:18:43.079Z,97593
2018-02-17T23:21:11.356Z,97594
2018-02-17T23:23:39.548Z,97597
2018-02-17T23:26:07.731Z,97601
2018-02-17T23:28:35.919Z,97604
2018-02-17T23:31:04.098Z,97604
2018-02-17T23:33:33.045Z,97599
2018-02-17T23:36:01.243Z,97601
2018-02-17T23:38:29.445Z,97594
2018-02-17T23:40:58.398Z,97600
2018-02-17T23:43:26.567Z,97606
2018-02-17T23:45:54.755Z,97610
2018-02-17T23:48:22.935Z,97609
2018-02-17T23:50:51.103Z,97613
2018-02-17T23:53:19.290Z,97615
2018-02-17T23:55:47.475Z,97617
2018-02-17T23:58:15.678Z,97620
